Nearby METAR Reports

 

YBUD - Bundaberg, Australia
Distance from station: SSW 6km
Updated: 27/02/2020 23:00
Clear
Clear
 Wind from SW
Wind: SW 2 km/h
Temperature: 22°C
Dew Point: 21°C
Humidity: 94%
Barometer: 1007 hPa
Clouds: Clear
Visibility: 10 km
2020/02/27 13:00 YBUD 271300Z AUTO 22001KT 9999 // NCD 22/21 Q1007
YGLA - Gladstone, Australia
Distance from station: NW 159km
Updated: 27/02/2020 23:30
Partly cloudy
Partly cloudy
 Wind from WSW
Wind: WSW 6 km/h
Temperature: 22°C
Dew Point: 21°C
Humidity: 94%
Barometer: 1008 hPa
Clouds: Partly cloudy
Visibility: 10 km
Cloud details: Partly cloudy 2713 m
2020/02/27 13:30 YGLA 271330Z AUTO 25003KT 9999 // SCT089 22/21 Q1008 RF00.0/009.0
YBRK - Rockhampton Airp, Australia
Distance from station: NW 252km
Updated: 27/02/2020 23:30
Clear
Clear
 Wind from SE
Wind: SE 7 km/h
Temperature: 27°C
Heat Index: 31°C
Dew Point: 25°C
Humidity: 89%
Barometer: 1007 hPa
Clouds: Clear
Visibility: 10 km
2020/02/27 13:30 YBRK 271330Z AUTO 14004KT 9999 // NCD 27/25 Q1007 RF00.0/017.0
 
YBBN - Brisbane Intl Ar, Australia
Distance from station: SSE 292km
Updated: 27/02/2020 23:30
Few Clouds
Few Clouds
 Wind from S
Wind: S 9 km/h
Temperature: 23°C
Dew Point: 21°C
Humidity: 89%
Barometer: 1008 hPa
Clouds: Few Clouds
Visibility: 10 km
Cloud details: Few Clouds 427 m
2020/02/27 13:30 YBBN 271330Z 19005KT 9999 FEW014 23/21 Q1008
YAMB - Amberley, Australia
Distance from station: S 312km
Updated: 27/02/2020 23:30
Clear
Clear
 Wind from NE
Wind: NE 9 km/h
Temperature: 22°C
Dew Point: 20°C
Humidity: 88%
Barometer: 1008 hPa
Clouds: Clear
Visibility: 10 km
2020/02/27 13:30 YAMB 271330Z AUTO 05005KT 9999 // NCD 22/20 Q1008
YBCG - Coolangatta Aws, Australia
Distance from station: SSE 386km
Updated: 27/02/2020 23:30
Clear
Clear
 Wind from calm
Wind: Calm
Temperature: 21°C
Dew Point: 20°C
Humidity: 94%
Barometer: 1008 hPa
Clouds: Clear
Visibility: 10 km
2020/02/27 13:30 YBCG 271330Z AUTO 00000KT 9999 // NCD 21/20 Q1008 RF00.0/000.8